createdAt,value
2023-03-27T00:01:01.198Z,3.39
2023-03-27T00:02:01.545Z,3.34
2023-03-27T00:03:00.036Z,3.30
2023-03-27T00:04:00.456Z,3.33
2023-03-27T00:05:00.646Z,3.34
2023-03-27T00:05:59.990Z,3.35
2023-03-27T00:07:01.303Z,3.37
2023-03-27T00:08:00.612Z,3.31
2023-03-27T00:09:00.045Z,3.30
2023-03-27T00:10:01.341Z,3.28
2023-03-27T00:11:00.681Z,3.28
2023-03-27T00:12:01.145Z,3.26
2023-03-27T00:13:01.400Z,3.26
2023-03-27T00:13:59.764Z,3.26
2023-03-27T00:15:00.214Z,3.22
2023-03-27T00:16:00.493Z,3.19
2023-03-27T00:16:59.969Z,3.20
2023-03-27T00:18:00.215Z,3.20
2023-03-27T00:19:00.507Z,3.20
2023-03-27T00:19:59.930Z,3.15
2023-03-27T00:21:00.310Z,3.15
2023-03-27T00:21:59.619Z,3.13
2023-03-27T00:23:00.003Z,3.12
2023-03-27T00:24:00.341Z,3.13
2023-03-27T00:24:59.692Z,3.12
2023-03-27T00:26:01.072Z,3.07
2023-03-27T00:26:59.467Z,3.05
2023-03-27T00:28:00.794Z,3.04
2023-03-27T00:29:00.198Z,3.05
2023-03-27T00:30:00.536Z,3.01
2023-03-27T00:31:00.270Z,2.94
2023-03-27T00:32:00.341Z,2.89
2023-03-27T00:32:59.682Z,2.84
2023-03-27T00:34:00.072Z,2.84
2023-03-27T00:35:00.376Z,2.83
2023-03-27T00:36:00.803Z,2.81
2023-03-27T00:37:01.147Z,2.81
2023-03-27T00:38:00.523Z,2.81
2023-03-27T00:38:59.909Z,2.80
2023-03-27T00:40:01.029Z,2.84
2023-03-27T00:40:59.934Z,2.69
2023-03-27T00:42:00.010Z,2.63
2023-03-27T00:43:00.308Z,2.61
2023-03-27T00:43:59.770Z,2.58
2023-03-27T00:45:01.107Z,2.55
2023-03-27T00:45:59.475Z,2.53
2023-03-27T00:46:59.873Z,2.51
2023-03-27T00:47:59.216Z,2.50
2023-03-27T00:48:59.570Z,2.47
2023-03-27T00:50:00.392Z,2.48
2023-03-27T00:51:00.249Z,2.50
2023-03-27T00:51:59.736Z,2.44
2023-03-27T00:53:00.111Z,2.47
2023-03-27T00:53:59.515Z,2.44
2023-03-27T00:54:59.827Z,2.43
2023-03-27T00:56:00.287Z,2.41
2023-03-27T00:57:00.527Z,2.44
2023-03-27T00:58:00.911Z,2.43
2023-03-27T00:58:59.259Z,2.43
2023-03-27T01:00:00.618Z,2.43
2023-03-27T01:00:59.234Z,2.37
2023-03-27T01:02:00.376Z,2.36
2023-03-27T01:03:00.719Z,2.37
2023-03-27T01:03:59.109Z,2.37
2023-03-27T01:05:00.421Z,2.36
2023-03-27T01:06:00.839Z,2.33
2023-03-27T01:06:59.173Z,2.32
2023-03-27T01:08:01.790Z,2.27
2023-03-27T01:09:00.851Z,2.29
2023-03-27T01:09:59.189Z,2.27
2023-03-27T01:11:00.568Z,2.26
2023-03-27T01:11:59.927Z,2.22
2023-03-27T01:13:00.309Z,2.22
2023-03-27T01:13:59.701Z,2.22
2023-03-27T01:15:00.036Z,2.19
2023-03-27T01:15:59.513Z,2.19
2023-03-27T01:16:58.832Z,2.19
2023-03-27T01:18:00.261Z,2.19
2023-03-27T01:19:00.551Z,2.19
2023-03-27T01:19:58.918Z,2.15
2023-03-27T01:21:00.371Z,2.15
2023-03-27T01:21:59.651Z,2.18
2023-03-27T01:22:59.089Z,2.15
2023-03-27T01:24:00.791Z,2.15
2023-03-27T01:25:00.128Z,2.14
2023-03-27T01:26:00.546Z,2.14
2023-03-27T01:26:59.896Z,2.12
2023-03-27T01:28:00.261Z,2.12
2023-03-27T01:28:59.663Z,2.11
2023-03-27T01:29:59.117Z,2.09
2023-03-27T01:30:59.722Z,2.07
2023-03-27T01:31:59.836Z,2.07
2023-03-27T01:33:00.312Z,2.07
2023-03-27T01:33:59.609Z,2.07
2023-03-27T01:35:01.067Z,2.07
2023-03-27T01:36:00.715Z,2.07
2023-03-27T01:36:59.800Z,2.07
2023-03-27T01:37:59.319Z,2.07
2023-03-27T01:38:58.581Z,2.04
2023-03-27T01:39:59.962Z,2.02
2023-03-27T01:41:00.373Z,2.02
2023-03-27T01:41:58.820Z,2.01
2023-03-27T01:43:00.177Z,2.01
2023-03-27T01:43:58.551Z,2.04
2023-03-27T01:44:58.957Z,2.05
2023-03-27T01:45:59.337Z,2.04
2023-03-27T01:46:58.720Z,2.02
2023-03-27T01:48:00.325Z,2.01
2023-03-27T01:48:58.435Z,2.01
2023-03-27T01:49:59.833Z,2.02
2023-03-27T01:51:00.216Z,2.02
2023-03-27T01:51:59.569Z,2.02
2023-03-27T01:52:58.992Z,2.02
2023-03-27T01:53:59.439Z,2.04
2023-03-27T01:54:59.804Z,2.01
2023-03-27T01:55:59.193Z,2.04
2023-03-27T01:56:59.553Z,2.07
2023-03-27T01:57:59.917Z,2.05
2023-03-27T01:58:59.293Z,2.05
2023-03-27T02:00:17.989Z,2.05
2023-03-27T02:01:00.174Z,2.05
2023-03-27T02:01:58.479Z,2.02
2023-03-27T02:02:59.904Z,2.01
2023-03-27T02:03:58.230Z,1.90
2023-03-27T02:04:58.644Z,1.95
2023-03-27T02:06:00.262Z,1.95
2023-03-27T02:06:59.312Z,2.01
2023-03-27T02:07:59.700Z,2.04
2023-03-27T02:08:59.057Z,2.04
2023-03-27T02:09:58.448Z,2.02
2023-03-27T02:10:59.845Z,2.05
2023-03-27T02:11:59.158Z,2.04
2023-03-27T02:12:58.557Z,1.98
2023-03-27T02:13:59.908Z,1.98
2023-03-27T02:15:23.161Z,1.98
2023-03-27T02:16:00.636Z,1.93
2023-03-27T02:16:58.973Z,1.90
2023-03-27T02:17:59.574Z,1.90
2023-03-27T02:18:58.785Z,1.89
2023-03-27T02:19:59.098Z,1.86
2023-03-27T02:20:59.515Z,1.83
2023-03-27T02:21:59.011Z,1.83
2023-03-27T02:22:59.399Z,1.83
2023-03-27T02:23:58.915Z,1.81
2023-03-27T02:24:58.224Z,1.82
2023-03-27T02:25:59.625Z,1.81
2023-03-27T02:26:58.980Z,1.79
2023-03-27T02:27:59.342Z,1.79
2023-03-27T02:28:59.790Z,1.74
2023-03-27T02:29:59.213Z,1.77
2023-03-27T02:31:05.745Z,1.77
2023-03-27T02:31:59.049Z,1.75
2023-03-27T02:32:58.458Z,1.75
2023-03-27T02:33:57.752Z,1.74
2023-03-27T02:34:58.197Z,1.72
2023-03-27T02:35:58.702Z,1.72
2023-03-27T02:36:58.954Z,1.75
2023-03-27T02:37:58.390Z,1.74
2023-03-27T02:38:58.724Z,1.72
2023-03-27T02:39:59.129Z,1.70
2023-03-27T02:40:59.726Z,1.70
2023-03-27T02:41:59.036Z,1.72
2023-03-27T02:42:59.489Z,1.67
2023-03-27T02:43:57.873Z,1.65
2023-03-27T02:44:59.310Z,1.64
2023-03-27T02:45:57.863Z,1.63
2023-03-27T02:46:59.150Z,1.63
2023-03-27T02:47:58.654Z,1.63
2023-03-27T02:48:58.985Z,1.64
2023-03-27T02:49:58.427Z,1.61
2023-03-27T02:50:58.140Z,1.60
2023-03-27T02:51:59.205Z,1.60
2023-03-27T02:52:58.595Z,1.56
2023-03-27T02:53:59.000Z,1.54
2023-03-27T02:54:59.394Z,1.56
2023-03-27T02:55:58.786Z,1.54
2023-03-27T02:56:59.225Z,1.53
2023-03-27T02:57:57.530Z,1.54
2023-03-27T02:58:58.922Z,1.54
2023-03-27T02:59:59.288Z,1.53
2023-03-27T03:00:57.903Z,1.53
2023-03-27T03:01:59.174Z,1.53
2023-03-27T03:02:57.639Z,1.53
2023-03-27T03:03:57.944Z,1.50
2023-03-27T03:04:58.339Z,1.50
2023-03-27T03:05:57.686Z,1.49
2023-03-27T03:06:58.121Z,1.49
2023-03-27T03:07:57.494Z,1.52
2023-03-27T03:08:59.200Z,1.54
2023-03-27T03:09:59.283Z,1.57
2023-03-27T03:10:57.841Z,1.60
2023-03-27T03:11:59.039Z,1.60
2023-03-27T03:12:58.412Z,1.56
2023-03-27T03:13:57.878Z,1.57
2023-03-27T03:14:58.214Z,1.56
2023-03-27T03:15:58.629Z,1.57
2023-03-27T03:16:58.092Z,1.56
2023-03-27T03:17:57.507Z,1.56
2023-03-27T03:18:58.821Z,1.53
2023-03-27T03:19:57.237Z,1.54
2023-03-27T03:20:57.871Z,1.49
2023-03-27T03:21:58.074Z,1.47
2023-03-27T03:22:58.418Z,1.46
2023-03-27T03:23:59.241Z,1.47
2023-03-27T03:24:58.310Z,1.47
2023-03-27T03:25:57.709Z,1.46
2023-03-27T03:26:58.054Z,1.46
2023-03-27T03:27:57.509Z,1.43
2023-03-27T03:29:00.476Z,1.46
2023-03-27T03:29:58.278Z,1.43
2023-03-27T03:30:57.863Z,1.43
2023-03-27T03:31:57.124Z,1.39
2023-03-27T03:32:57.588Z,1.42
2023-03-27T03:33:58.912Z,1.39
2023-03-27T03:34:58.259Z,1.42
2023-03-27T03:35:57.737Z,1.43
2023-03-27T03:36:57.067Z,1.42
2023-03-27T03:37:58.484Z,1.42
2023-03-27T03:38:57.875Z,1.36
2023-03-27T03:39:58.208Z,1.34
2023-03-27T03:40:57.790Z,1.32
2023-03-27T03:41:57.953Z,1.35
2023-03-27T03:42:58.402Z,1.34
2023-03-27T03:43:58.902Z,1.35
2023-03-27T03:44:57.244Z,1.34
2023-03-27T03:45:57.654Z,1.32
2023-03-27T03:46:56.987Z,1.32
2023-03-27T03:47:57.474Z,1.31
2023-03-27T03:48:59.304Z,1.31
2023-03-27T03:49:58.193Z,1.28
2023-03-27T03:50:58.795Z,1.28
2023-03-27T03:52:04.487Z,1.28
2023-03-27T03:52:59.290Z,1.25
2023-03-27T03:53:57.697Z,1.25
2023-03-27T03:54:57.131Z,1.24
2023-03-27T03:55:57.610Z,1.25
2023-03-27T03:56:57.023Z,1.28
2023-03-27T03:57:57.330Z,1.25
2023-03-27T03:58:56.703Z,1.29
2023-03-27T03:59:58.106Z,1.28
2023-03-27T04:00:58.512Z,1.28
2023-03-27T04:01:56.973Z,1.26
2023-03-27T04:02:58.355Z,1.26
2023-03-27T04:03:56.691Z,1.26
2023-03-27T04:04:58.053Z,1.25
2023-03-27T04:05:58.479Z,1.25
2023-03-27T04:06:56.914Z,1.25
2023-03-27T04:07:58.319Z,1.21
2023-03-27T04:08:56.722Z,1.26
2023-03-27T04:09:57.130Z,1.21
2023-03-27T04:10:57.671Z,1.21
2023-03-27T04:11:56.938Z,1.20
2023-03-27T04:12:58.343Z,1.20
2023-03-27T04:13:56.758Z,1.17
2023-03-27T04:14:57.176Z,1.17
2023-03-27T04:15:56.599Z,1.18
2023-03-27T04:16:57.946Z,1.20
2023-03-27T04:17:57.456Z,1.20
2023-03-27T04:18:56.921Z,1.18
2023-03-27T04:19:57.294Z,1.18
2023-03-27T04:20:57.689Z,1.18
2023-03-27T04:21:57.939Z,1.17
2023-03-27T04:22:56.353Z,1.17
2023-03-27T04:23:56.782Z,1.10
2023-03-27T04:24:57.202Z,1.11
2023-03-27T04:25:57.530Z,1.11
2023-03-27T04:26:57.943Z,1.11
2023-03-27T04:27:56.362Z,1.10
2023-03-27T04:28:57.737Z,1.06
2023-03-27T04:29:58.153Z,1.07
2023-03-27T04:30:56.734Z,1.11
2023-03-27T04:31:56.982Z,1.07
2023-03-27T04:32:57.373Z,1.06
2023-03-27T04:33:56.783Z,1.06
2023-03-27T04:34:58.146Z,1.07
2023-03-27T04:36:06.068Z,1.07
2023-03-27T04:36:59.138Z,1.07
2023-03-27T04:37:57.374Z,1.06
2023-03-27T04:38:56.817Z,1.02
2023-03-27T04:39:56.170Z,1.04
2023-03-27T04:40:57.744Z,1.04
2023-03-27T04:41:57.963Z,1.04
2023-03-27T04:42:56.388Z,1.02
2023-03-27T04:43:57.740Z,0.99
2023-03-27T04:44:56.153Z,1.00
2023-03-27T04:45:56.577Z,0.99
2023-03-27T04:46:57.999Z,1.02
2023-03-27T04:47:56.562Z,1.04
2023-03-27T04:48:57.869Z,1.06
2023-03-27T04:49:56.245Z,1.02
2023-03-27T04:50:56.840Z,1.02
2023-03-27T04:51:56.055Z,0.99
2023-03-27T04:52:56.475Z,1.00
2023-03-27T04:53:56.891Z,0.99
2023-03-27T04:54:56.774Z,0.99
2023-03-27T04:55:56.681Z,0.99
2023-03-27T04:56:56.067Z,0.99
2023-03-27T04:57:57.439Z,0.98
2023-03-27T04:58:55.861Z,0.96
2023-03-27T04:59:56.261Z,0.99
2023-03-27T05:00:58.204Z,0.98
2023-03-27T05:01:56.056Z,0.96
2023-03-27T05:02:56.522Z,1.00
2023-03-27T05:03:55.939Z,1.06
2023-03-27T05:04:56.263Z,1.07
2023-03-27T05:05:57.650Z,1.07
2023-03-27T05:06:56.131Z,1.10
2023-03-27T05:07:57.454Z,1.08
2023-03-27T05:08:55.892Z,1.07
2023-03-27T05:09:56.248Z,1.06
2023-03-27T05:10:56.956Z,1.04
2023-03-27T05:11:56.054Z,1.04
2023-03-27T05:12:58.416Z,1.04
2023-03-27T05:13:55.860Z,1.00
2023-03-27T05:14:56.270Z,0.99
2023-03-27T05:15:55.640Z,1.00
2023-03-27T05:16:56.041Z,1.02
2023-03-27T05:17:56.532Z,0.99
2023-03-27T05:18:56.133Z,1.02
2023-03-27T05:19:57.215Z,1.04
2023-03-27T05:20:55.779Z,1.02
2023-03-27T05:21:56.038Z,1.02
2023-03-27T05:22:56.525Z,0.98
2023-03-27T05:23:55.858Z,0.98
2023-03-27T05:24:56.365Z,0.99
2023-03-27T05:26:00.285Z,0.99
2023-03-27T05:26:57.058Z,1.02
2023-03-27T05:27:57.508Z,1.02
2023-03-27T05:28:55.867Z,1.02
2023-03-27T05:29:56.345Z,1.00
2023-03-27T05:30:56.060Z,0.99
2023-03-27T05:31:56.159Z,0.98
2023-03-27T05:32:55.545Z,0.99
2023-03-27T05:33:55.914Z,1.00
2023-03-27T05:34:56.362Z,0.99
2023-03-27T05:35:55.816Z,1.02
2023-03-27T05:36:56.155Z,1.02
2023-03-27T05:37:55.522Z,1.02
2023-03-27T05:38:55.937Z,1.02
2023-03-27T05:39:56.361Z,1.02
2023-03-27T05:40:55.930Z,1.02
2023-03-27T05:41:56.197Z,1.07
2023-03-27T05:42:55.603Z,1.07
2023-03-27T05:43:55.991Z,1.13
2023-03-27T05:44:56.368Z,1.13
2023-03-27T05:45:55.873Z,1.13
2023-03-27T05:46:56.295Z,1.11
2023-03-27T05:47:55.733Z,1.13
2023-03-27T05:48:56.119Z,1.10
2023-03-27T05:49:55.510Z,1.10
2023-03-27T05:50:56.122Z,1.11
2023-03-27T05:51:55.362Z,1.08
2023-03-27T05:52:55.808Z,1.10
2023-03-27T05:53:55.174Z,1.11
2023-03-27T05:54:55.638Z,1.14
2023-03-27T05:56:02.750Z,1.16
2023-03-27T05:56:56.653Z,1.16
2023-03-27T05:57:55.905Z,1.13
2023-03-27T05:58:55.330Z,1.16
2023-03-27T05:59:55.735Z,1.18
2023-03-27T06:00:55.259Z,1.24
2023-03-27T06:01:55.551Z,1.25
2023-03-27T06:02:56.580Z,1.25
2023-03-27T06:03:55.458Z,1.26
2023-03-27T06:04:55.802Z,1.31
2023-03-27T06:05:55.153Z,1.29
2023-03-27T06:06:55.591Z,1.34
2023-03-27T06:07:55.998Z,1.34
2023-03-27T06:08:55.403Z,1.31
2023-03-27T06:09:55.836Z,1.31
2023-03-27T06:10:55.425Z,1.34
2023-03-27T06:11:55.604Z,1.38
2023-03-27T06:12:54.980Z,1.36
2023-03-27T06:13:55.806Z,1.38
2023-03-27T06:14:55.878Z,1.38
2023-03-27T06:15:55.494Z,1.39
2023-03-27T06:16:55.586Z,1.39
2023-03-27T06:17:54.991Z,1.43
2023-03-27T06:18:55.522Z,1.46
2023-03-27T06:19:55.777Z,1.50
2023-03-27T06:20:55.556Z,1.53
2023-03-27T06:21:55.588Z,1.57
2023-03-27T06:22:54.882Z,1.56
2023-03-27T06:23:55.297Z,1.61
2023-03-27T06:24:55.701Z,1.63
2023-03-27T06:25:55.387Z,1.67
2023-03-27T06:26:55.473Z,1.67
2023-03-27T06:27:54.835Z,1.70
2023-03-27T06:28:55.221Z,1.71
2023-03-27T06:29:54.814Z,1.68
2023-03-27T06:30:55.306Z,1.72
2023-03-27T06:31:55.585Z,1.75
2023-03-27T06:32:54.968Z,1.75
2023-03-27T06:33:55.357Z,1.75
2023-03-27T06:34:55.598Z,1.77
2023-03-27T06:35:56.241Z,1.79
2023-03-27T06:36:55.428Z,1.81
2023-03-27T06:37:54.818Z,1.85
2023-03-27T06:38:55.203Z,1.86
2023-03-27T06:39:54.553Z,1.86
2023-03-27T06:40:56.076Z,1.88
2023-03-27T06:41:55.311Z,1.90
2023-03-27T06:42:54.697Z,1.92
2023-03-27T06:43:55.164Z,1.98
2023-03-27T06:44:54.658Z,1.93
2023-03-27T06:45:55.260Z,1.98
2023-03-27T06:46:55.553Z,1.98
2023-03-27T06:47:57.426Z,2.00
2023-03-27T06:48:56.341Z,2.01
2023-03-27T06:49:54.651Z,1.95
2023-03-27T06:50:56.339Z,2.00
2023-03-27T06:51:55.474Z,2.02
2023-03-27T06:52:54.516Z,2.08
2023-03-27T06:53:55.878Z,2.08
2023-03-27T06:54:55.342Z,2.18
2023-03-27T06:55:54.838Z,2.09
2023-03-27T06:56:56.082Z,2.14
2023-03-27T06:57:55.385Z,2.15
2023-03-27T06:58:54.827Z,2.20
2023-03-27T06:59:55.264Z,2.23
2023-03-27T07:00:54.648Z,2.26
2023-03-27T07:01:55.134Z,2.27
2023-03-27T07:02:54.396Z,2.26
2023-03-27T07:03:54.786Z,2.26
2023-03-27T07:05:04.298Z,2.25
2023-03-27T07:05:55.902Z,2.27
2023-03-27T07:06:56.002Z,2.32
2023-03-27T07:07:54.380Z,2.38
2023-03-27T07:08:54.806Z,2.47
2023-03-27T07:09:55.194Z,2.53
2023-03-27T07:11:55.033Z,2.50
2023-03-27T07:12:54.332Z,2.55
2023-03-27T07:13:56.042Z,2.53
2023-03-27T07:14:54.096Z,2.53
2023-03-27T07:15:54.553Z,2.53
2023-03-27T07:16:55.015Z,2.51
2023-03-27T07:17:54.374Z,2.55
2023-03-27T07:18:54.710Z,2.53
2023-03-27T07:19:55.183Z,2.56
2023-03-27T07:20:54.674Z,2.58
2023-03-27T07:21:54.883Z,2.63
2023-03-27T07:22:56.436Z,2.58
2023-03-27T07:23:54.946Z,2.63
2023-03-27T07:24:54.967Z,2.63
2023-03-27T07:25:55.616Z,2.63
2023-03-27T07:26:54.794Z,2.61
2023-03-27T07:27:54.147Z,2.58
2023-03-27T07:28:54.571Z,2.55
2023-03-27T07:29:54.957Z,2.55
2023-03-27T07:30:54.355Z,2.56
2023-03-27T07:31:57.873Z,2.56
2023-03-27T07:32:54.221Z,2.55
2023-03-27T07:33:55.487Z,2.56
2023-03-27T07:34:53.864Z,2.59
2023-03-27T07:35:54.370Z,2.59
2023-03-27T07:36:55.601Z,2.61
2023-03-27T07:37:54.020Z,2.61
2023-03-27T07:38:54.409Z,2.62
2023-03-27T07:39:55.788Z,2.62
2023-03-27T07:40:54.140Z,2.62
2023-03-27T07:41:54.529Z,2.62
2023-03-27T07:42:54.898Z,2.63
2023-03-27T07:43:55.165Z,2.62
2023-03-27T07:44:54.581Z,2.66
2023-03-27T07:45:53.997Z,2.66
2023-03-27T07:46:54.321Z,2.69
2023-03-27T07:47:54.690Z,2.66
2023-03-27T07:48:53.977Z,2.71
2023-03-27T07:49:54.372Z,2.76
2023-03-27T07:50:56.118Z,2.79
2023-03-27T07:51:54.068Z,2.80
2023-03-27T07:52:54.417Z,2.84
2023-03-27T07:53:53.748Z,2.87
2023-03-27T07:54:54.075Z,2.87
2023-03-27T07:55:54.687Z,2.90
2023-03-27T07:56:54.771Z,2.92
2023-03-27T07:58:01.344Z,2.95
2023-03-27T07:58:55.535Z,2.97
2023-03-27T07:59:54.844Z,2.98
2023-03-27T08:00:54.263Z,2.99
2023-03-27T08:01:54.591Z,3.04
2023-03-27T08:02:55.045Z,3.07
2023-03-27T08:03:54.932Z,3.13
2023-03-27T08:04:54.806Z,3.19
2023-03-27T08:05:54.233Z,3.23
2023-03-27T08:06:54.441Z,3.26
2023-03-27T08:07:53.777Z,3.28
2023-03-27T08:08:54.123Z,3.30
2023-03-27T08:09:54.518Z,3.30
2023-03-27T08:10:53.883Z,3.30
2023-03-27T08:11:55.156Z,3.31
2023-03-27T08:12:54.492Z,3.34
2023-03-27T08:13:54.857Z,3.37
2023-03-27T08:14:54.265Z,3.42
2023-03-27T08:15:53.650Z,3.44
2023-03-27T08:17:05.182Z,3.44
2023-03-27T08:17:55.617Z,3.49
2023-03-27T08:18:53.590Z,3.50
2023-03-27T08:19:54.906Z,3.49
2023-03-27T08:20:53.275Z,3.49
2023-03-27T08:21:53.656Z,3.54
2023-03-27T08:22:54.974Z,3.57
2023-03-27T08:23:55.625Z,3.57
2023-03-27T08:24:54.705Z,3.59
2023-03-27T08:25:55.407Z,3.64
2023-03-27T08:26:54.380Z,3.74
2023-03-27T08:27:53.998Z,3.80
2023-03-27T08:28:55.084Z,3.84
2023-03-27T08:29:53.467Z,3.90
2023-03-27T08:30:53.893Z,3.96
2023-03-27T08:31:54.185Z,4.06
2023-03-27T08:32:53.552Z,4.11
2023-03-27T08:33:53.965Z,4.11
2023-03-27T08:34:53.183Z,4.17
2023-03-27T08:35:53.604Z,4.16
2023-03-27T08:36:54.895Z,4.18
2023-03-27T08:37:54.180Z,4.24
2023-03-27T08:38:53.644Z,4.31
2023-03-27T08:39:54.084Z,4.21
2023-03-27T08:40:53.309Z,4.18
2023-03-27T08:41:53.782Z,4.18
2023-03-27T08:42:53.035Z,4.24
2023-03-27T08:43:53.369Z,4.28
2023-03-27T08:44:53.765Z,4.34
2023-03-27T08:45:54.197Z,4.31
2023-03-27T08:46:53.422Z,4.32
2023-03-27T08:47:54.748Z,4.32
2023-03-27T08:48:53.076Z,4.36
2023-03-27T08:49:53.391Z,4.43
2023-03-27T08:50:53.802Z,4.51
2023-03-27T08:51:53.036Z,4.61
2023-03-27T08:52:53.422Z,4.67
2023-03-27T08:53:53.755Z,4.67
2023-03-27T08:54:53.987Z,4.59
2023-03-27T08:55:53.403Z,4.54
2023-03-27T08:56:53.850Z,4.49
2023-03-27T08:57:54.004Z,4.42
2023-03-27T08:58:54.386Z,4.38
2023-03-27T08:59:54.703Z,4.36
2023-03-27T09:00:54.011Z,4.29
2023-03-27T09:01:54.424Z,4.28
2023-03-27T09:02:52.881Z,4.28
2023-03-27T09:03:54.199Z,4.26
2023-03-27T09:04:53.402Z,4.29
2023-03-27T09:05:52.706Z,4.36
2023-03-27T09:06:54.011Z,4.49
2023-03-27T09:07:54.104Z,4.62
2023-03-27T09:08:52.630Z,4.72
2023-03-27T09:09:53.005Z,4.79
2023-03-27T09:10:53.299Z,4.91
2023-03-27T09:11:52.569Z,5.02
2023-03-27T09:12:52.907Z,5.09
2023-03-27T09:13:53.254Z,5.14
2023-03-27T09:14:52.552Z,5.20
2023-03-27T09:15:53.847Z,5.22
2023-03-27T09:16:53.229Z,5.15
2023-03-27T09:17:53.509Z,5.12
2023-03-27T09:18:53.771Z,5.11
2023-03-27T09:19:54.188Z,5.12
2023-03-27T09:20:54.424Z,5.17
2023-03-27T09:21:53.733Z,5.17
2023-03-27T09:22:54.071Z,5.12
2023-03-27T09:23:52.425Z,5.06
2023-03-27T09:24:53.769Z,5.06
2023-03-27T09:25:53.172Z,5.04
2023-03-27T09:27:06.387Z,5.01
2023-03-27T09:27:53.725Z,4.96
2023-03-27T09:28:53.996Z,4.91
2023-03-27T09:29:52.315Z,4.88
2023-03-27T09:30:54.039Z,4.86
2023-03-27T09:31:53.070Z,4.87
2023-03-27T09:32:53.292Z,4.84
2023-03-27T09:33:53.632Z,4.88
2023-03-27T09:34:52.996Z,4.90
2023-03-27T09:35:53.268Z,4.93
2023-03-27T09:36:52.618Z,4.94
2023-03-27T09:37:53.880Z,4.94
2023-03-27T09:38:53.261Z,4.96
2023-03-27T09:39:53.502Z,4.94
2023-03-27T09:40:53.926Z,4.93
2023-03-27T09:41:53.189Z,4.88
2023-03-27T09:42:53.365Z,4.86
2023-03-27T09:43:52.627Z,4.86
2023-03-27T09:44:53.938Z,4.86
2023-03-27T09:45:53.206Z,4.83
2023-03-27T09:46:53.583Z,4.87
2023-03-27T09:47:53.045Z,4.88
2023-03-27T09:48:53.260Z,4.88
2023-03-27T09:49:53.645Z,4.91
2023-03-27T09:50:53.034Z,4.90
2023-03-27T09:51:52.387Z,4.90
2023-03-27T09:52:52.758Z,4.90
2023-03-27T09:53:53.089Z,4.90
2023-03-27T09:54:52.424Z,4.91
2023-03-27T09:55:53.800Z,4.93
2023-03-27T09:56:53.170Z,4.93
2023-03-27T09:57:52.476Z,4.93
2023-03-27T09:58:52.976Z,4.90
2023-03-27T09:59:53.167Z,4.90
2023-03-27T10:00:52.616Z,4.80
2023-03-27T10:01:53.967Z,4.65
2023-03-27T10:02:52.344Z,4.47
2023-03-27T10:03:53.674Z,4.29
2023-03-27T10:04:52.328Z,4.18
2023-03-27T10:05:52.009Z,3.93
2023-03-27T10:06:53.299Z,3.75
2023-03-27T10:07:53.886Z,3.56
2023-03-27T10:08:54.013Z,3.50
2023-03-27T10:09:53.653Z,3.45
2023-03-27T10:10:53.667Z,3.45
2023-03-27T10:11:52.008Z,3.59
2023-03-27T10:12:52.397Z,3.71
2023-03-27T10:13:52.752Z,3.78
2023-03-27T10:14:52.805Z,3.89
2023-03-27T10:15:53.467Z,3.93
2023-03-27T10:16:52.741Z,4.00
2023-03-27T10:17:52.129Z,4.10
2023-03-27T10:18:52.446Z,4.17
2023-03-27T10:19:51.772Z,4.17
2023-03-27T10:20:53.100Z,4.21
2023-03-27T10:21:52.629Z,4.29
2023-03-27T10:22:54.674Z,4.46
2023-03-27T10:23:52.139Z,4.62
2023-03-27T10:24:53.454Z,4.72
2023-03-27T10:25:51.808Z,4.88
2023-03-27T10:26:53.130Z,5.09
2023-03-27T10:27:53.568Z,5.29
2023-03-27T10:28:52.808Z,5.38
2023-03-27T10:29:52.191Z,5.47
2023-03-27T10:30:52.548Z,5.40
2023-03-27T10:31:52.971Z,5.19
2023-03-27T10:32:53.240Z,5.08
2023-03-27T10:33:52.591Z,4.93
2023-03-27T10:34:52.791Z,4.88
2023-03-27T10:35:53.193Z,4.86
2023-03-27T10:36:52.454Z,4.80
2023-03-27T10:37:51.849Z,4.79
2023-03-27T10:38:52.206Z,4.80
2023-03-27T10:39:52.433Z,4.84
2023-03-27T10:40:52.756Z,4.91
2023-03-27T10:41:52.194Z,4.91
2023-03-27T10:42:51.471Z,4.96
2023-03-27T10:43:52.759Z,4.99
2023-03-27T10:44:53.138Z,5.04
2023-03-27T10:45:52.391Z,4.99
2023-03-27T10:46:51.773Z,4.99
2023-03-27T10:47:53.166Z,5.02
2023-03-27T10:48:51.381Z,5.09
2023-03-27T10:49:52.726Z,5.20
2023-03-27T10:50:52.038Z,5.32
2023-03-27T10:51:52.264Z,5.42
2023-03-27T10:52:51.682Z,5.58
2023-03-27T10:53:53.045Z,5.63
2023-03-27T10:54:51.322Z,5.69
2023-03-27T10:55:51.670Z,5.81
2023-03-27T10:56:52.955Z,5.87
2023-03-27T10:57:51.238Z,5.92
2023-03-27T10:58:52.454Z,5.99
2023-03-27T10:59:52.793Z,6.13
2023-03-27T11:00:53.090Z,6.21
2023-03-27T11:01:51.412Z,6.38
2023-03-27T11:02:51.731Z,6.42
2023-03-27T11:03:52.065Z,6.42
2023-03-27T11:04:52.175Z,6.57
2023-03-27T11:05:52.499Z,6.58
2023-03-27T11:06:52.831Z,6.61
2023-03-27T11:07:51.119Z,6.54
2023-03-27T11:08:52.320Z,6.39
2023-03-27T11:09:51.716Z,6.32
2023-03-27T11:10:52.098Z,6.28
2023-03-27T11:11:51.354Z,6.38
2023-03-27T11:12:52.648Z,6.50
2023-03-27T11:13:51.956Z,6.51
2023-03-27T11:14:52.171Z,6.40
2023-03-27T11:15:52.493Z,6.33
2023-03-27T11:16:51.880Z,6.30
2023-03-27T11:17:51.230Z,6.21
2023-03-27T11:18:51.432Z,6.13
2023-03-27T11:19:52.741Z,6.11
2023-03-27T11:20:51.059Z,6.10
2023-03-27T11:21:51.447Z,6.02
2023-03-27T11:22:52.691Z,5.96
2023-03-27T11:23:51.004Z,5.98
2023-03-27T11:24:51.297Z,6.02
2023-03-27T11:25:52.682Z,6.06
2023-03-27T11:26:50.913Z,6.06
2023-03-27T11:27:52.243Z,6.10
2023-03-27T11:28:52.513Z,6.10
2023-03-27T11:29:50.860Z,6.10
2023-03-27T11:30:51.246Z,6.11
2023-03-27T11:31:51.550Z,6.02
2023-03-27T11:32:50.838Z,5.95
2023-03-27T11:33:51.288Z,5.92
2023-03-27T11:34:51.477Z,5.88
2023-03-27T11:35:51.830Z,5.84
2023-03-27T11:36:51.174Z,5.67
2023-03-27T11:37:51.505Z,5.38
2023-03-27T11:38:50.798Z,5.17
2023-03-27T11:39:52.510Z,5.01
2023-03-27T11:40:51.505Z,4.87
2023-03-27T11:41:51.821Z,4.74
2023-03-27T11:42:52.146Z,4.67
2023-03-27T11:43:52.570Z,4.64
2023-03-27T11:44:50.897Z,4.68
2023-03-27T11:45:51.219Z,4.75
2023-03-27T11:46:51.568Z,4.97
2023-03-27T11:47:51.827Z,5.20
2023-03-27T11:48:52.185Z,5.40
2023-03-27T11:49:52.576Z,5.62
2023-03-27T11:50:50.817Z,5.78
2023-03-27T11:51:52.138Z,5.90
2023-03-27T11:52:52.448Z,6.06
2023-03-27T11:53:51.769Z,6.27
2023-03-27T11:54:52.068Z,6.46
2023-03-27T11:55:51.611Z,6.64
2023-03-27T11:56:51.736Z,6.83
2023-03-27T11:57:52.018Z,7.05
2023-03-27T11:58:52.306Z,7.21
2023-03-27T11:59:51.633Z,7.34
2023-03-27T12:00:51.942Z,7.52
2023-03-27T12:01:52.355Z,7.73
2023-03-27T12:02:50.721Z,7.89
2023-03-27T12:03:52.028Z,7.95
2023-03-27T12:04:51.260Z,8.03
2023-03-27T12:05:50.532Z,7.89
2023-03-27T12:06:51.796Z,7.74
2023-03-27T12:07:52.184Z,7.66
2023-03-27T12:08:50.402Z,7.60
2023-03-27T12:09:50.680Z,7.48
2023-03-27T12:10:52.056Z,7.44
2023-03-27T12:11:50.276Z,7.32
2023-03-27T12:12:51.573Z,7.24
2023-03-27T12:14:01.201Z,7.15
2023-03-27T12:14:51.173Z,7.07
2023-03-27T12:15:50.537Z,6.96
2023-03-27T12:16:50.864Z,6.96
2023-03-27T12:17:51.196Z,6.91
2023-03-27T12:19:01.995Z,6.86
2023-03-27T12:19:52.717Z,6.76
2023-03-27T12:20:53.597Z,6.65
2023-03-27T12:21:50.288Z,6.58
2023-03-27T12:22:51.728Z,6.53
2023-03-27T12:23:50.929Z,6.46
2023-03-27T12:24:59.458Z,6.36
2023-03-27T12:25:51.560Z,6.24
2023-03-27T12:26:51.769Z,6.20
2023-03-27T12:27:50.127Z,6.16
2023-03-27T12:28:50.385Z,6.14
2023-03-27T12:29:51.715Z,6.19
2023-03-27T12:30:50.065Z,6.19
2023-03-27T12:31:51.355Z,6.19
2023-03-27T12:32:53.371Z,6.19
2023-03-27T12:33:51.892Z,6.19
2023-03-27T12:34:51.197Z,6.35
2023-03-27T12:35:51.532Z,6.51
2023-03-27T12:36:50.820Z,6.50
2023-03-27T12:37:50.180Z,6.45
2023-03-27T12:38:51.397Z,6.53
2023-03-27T12:39:52.008Z,6.69
2023-03-27T12:40:50.009Z,6.81
2023-03-27T12:41:50.293Z,6.96
2023-03-27T12:42:50.729Z,7.11
2023-03-27T12:43:49.882Z,7.08
2023-03-27T12:44:50.210Z,6.94
2023-03-27T12:46:49.811Z,6.57
2023-03-27T12:47:50.187Z,6.45
2023-03-27T12:48:51.533Z,6.32
2023-03-27T12:49:49.788Z,6.21
2023-03-27T12:50:50.071Z,6.02
2023-03-27T12:51:51.426Z,5.87
2023-03-27T12:52:49.742Z,5.74
2023-03-27T12:53:50.107Z,5.55
2023-03-27T12:54:51.482Z,5.38
2023-03-27T12:55:49.765Z,5.20
2023-03-27T12:56:50.183Z,4.91
2023-03-27T12:57:50.536Z,4.61
2023-03-27T12:58:49.754Z,4.35
2023-03-27T12:59:50.119Z,4.16
2023-03-27T13:00:51.492Z,4.08
2023-03-27T13:01:52.570Z,4.02
2023-03-27T13:02:51.184Z,3.93
2023-03-27T13:03:50.569Z,3.92
2023-03-27T13:04:49.822Z,3.86
2023-03-27T13:05:50.164Z,3.89
2023-03-27T13:06:50.562Z,3.90
2023-03-27T13:07:49.807Z,4.02
2023-03-27T13:08:50.166Z,4.11
2023-03-27T13:09:50.621Z,4.31
2023-03-27T13:10:49.856Z,4.47
2023-03-27T13:11:50.168Z,4.67
2023-03-27T13:12:49.625Z,4.90
2023-03-27T13:13:49.831Z,5.17
2023-03-27T13:14:50.241Z,5.35
2023-03-27T13:15:49.546Z,5.59
2023-03-27T13:16:49.841Z,5.83
2023-03-27T13:17:50.255Z,5.92
2023-03-27T13:18:51.737Z,5.87
2023-03-27T13:19:49.806Z,5.80
2023-03-27T13:20:50.218Z,5.78